Latest Coastal Weather Observations for Neptune Island

IDT60701

Issued at 3:02 pm EST Friday 29 May 2020 (issued every 10 minutes, with the page automatically refreshed every 10 minutes)

About coastal observations | Map of coastal stations | Coastal observations for TAS | Marine services | Other Formats
Station Details ID: 018115 Name: NEPTUNE ISLAND Lat: -35.34 Lon: 136.12 Height: 32.0 m
Data from the previous 72 hours. | See also: Recent months at Neptune Island
Date/Time
EST
Wind Sea
Height
m
Swell Vis
km
Cloud Weather Temp
°C
Press
hPa
Rain since
9am
mm
Dir  Spd
kts
Gust
kts
Height
m
Period
s
Dir
29/02:00pm N 17 19 - - - - - - - 18.3 1019.8 0.0
29/01:30pm N 18 21 - - - - - - - 18.1 1020.2 0.0
29/01:00pm N 19 23 - - - - - - - 17.8 1020.7 0.0
29/12:30pm N 19 22 - - - - - - - 17.4 1021.0 0.0
29/12:00pm N 19 22 - - - - - - - 17.3 1021.5 0.0
29/11:30am N 19 23 - - - - - - - 17.0 1021.7 0.0
29/11:00am N 18 22 - - - - - - - 16.7 1022.0 0.0
29/10:30am N 17 20 - - - - - - - 16.5 1022.1 0.0
29/10:00am N 18 21 - - - - - - - 16.0 1022.2 0.0
29/09:30am N 19 23 - - - - - - - 15.7 1022.4 -
29/09:00am N 19 24 - - - - - - - 15.3 1022.2 -
29/08:30am N 19 22 - - - - - - - 14.7 1022.0 -
29/08:00am N 21 24 - - - - - - - 14.2 1021.7 -
29/07:30am N 22 25 - - - - - - - 14.2 1021.5 -
29/07:00am N 20 23 - - - - - - - 14.4 1021.4 -
29/06:30am N 16 19 - - - - - - - 14.6 1021.4 -
29/06:00am N 18 21 - - - - - - - 14.4 1021.5 -
29/05:30am N 20 23 - - - - - - - 14.2 1021.4 -
29/05:00am N 20 25 - - - - - - - 14.4 1021.6 -
29/04:30am N 17 21 - - - - - - - 14.5 1021.7 -
29/04:00am N 16 18 - - - - - - - 14.4 1021.8 -
29/03:30am N 16 19 - - - - - - - 14.4 1021.8 -
29/03:00am N 17 19 - - - - - - - 14.5 1021.6 -
29/02:30am N 14 17 - - - - - - - 14.8 1021.6 -
29/02:00am N 12 15 - - - - - - - 14.6 1021.7 -
29/12:30am NNW 17 21 - - - - - - - 15.4 1022.1 0.0
29/12:00am NNW 15 17 - - - - - - - 15.1 1022.4 0.0
 
Date/Time
EST
Wind Sea
Height
m
Swell Vis
km
Cloud Weather Temp
°C
Press
hPa
Rain since
9am
mm
Dir  Spd
kts
Gust
kts
Height
m
Period
s
Dir
28/11:30pm NNW 19 21 - - - - - - - 14.9 1022.5 0.0
28/11:00pm NNW 19 22 - - - - - - - 14.9 1022.8 0.0
28/10:30pm NNW 18 21 - - - - - - - 15.0 1022.9 0.0
28/10:00pm N 15 17 - - - - - - - 15.1 1023.1 0.0
28/09:30pm N 14 18 - - - - - - - 14.8 1023.0 0.0
28/09:00pm N 14 18 - - - - - - - 15.1 1022.8 0.0
28/08:30pm N 15 17 - - - - - - - 15.2 1022.7 0.0
28/08:00pm N 12 15 - - - - - - - 14.9 1022.5 0.0
28/07:30pm NNW 15 17 - - - - - - - 15.2 1022.2 0.0
28/07:00pm NNW 15 18 - - - - - - - 15.2 1022.0 0.0
28/06:30pm N 14 17 - - - - - - - 15.7 1021.9 0.0
28/06:00pm NNW 11 13 - - - - - - - 15.9 1021.9 0.0
28/05:30pm NNW 13 16 - - - - - - - 16.6 1021.8 0.0
28/05:00pm WNW 10 11 - - - - - - - 16.3 1021.6 0.0
28/04:30pm WNW 11 13 - - - - - - - 16.9 1021.4 0.0
28/04:00pm NNW 10 12 - - - - - - - 16.7 1021.1 0.0
28/03:30pm NNW 12 14 - - - - - - - 17.2 1020.9 0.0
28/03:00pm NNW 14 16 - - - - - - - 16.8 1020.7 0.0
28/02:30pm NNW 14 17 - - - - - - - 17.0 1020.8 0.0
28/02:00pm N 10 13 - - - - - - - 16.3 1020.9 0.0
28/01:30pm NNW 17 21 - - - - - - - 14.7 1021.3 0.0
28/01:00pm NNW 16 19 - - - - - - - 16.4 1021.4 0.0
28/12:30pm NNW 13 16 - - - - - - - 16.2 1021.8 0.0
28/12:00pm NNW 14 16 - - - - - - - 15.7 1022.1 0.0
28/11:30am NNW 16 21 - - - - - - - 15.0 1022.1 0.0
28/11:00am NNW 14 18 - - - - - - - 16.1 1022.2 0.0
28/10:30am NNW 11 14 - - - - - - - 15.1 1022.1 0.0
28/10:00am NW 9 13 - - - - - - - 15.6 1022.0 0.0
28/09:30am NNW 15 19 - - - - - - - 14.6 1021.7 0.8
28/09:00am NNW 12 13 - - - - - - - 14.6 1021.4 0.8
28/08:30am NNW 15 20 - - - - - - - 14.9 1021.1 0.8
28/08:00am NNW 11 15 - - - - - - - 14.6 1020.9 0.8
28/07:30am NW 14 20 - - - - - - - 15.0 1020.6 0.8
28/07:00am NW 15 17 - - - - - - - 14.5 1020.1 0.8
28/06:30am WNW 15 18 - - - - - - - 14.4 1019.8 0.8
28/06:00am WNW 16 19 - - - - - - - 14.3 1019.5 0.8
28/05:30am NW 15 19 - - - - - - - 14.2 1019.4 0.8
28/05:00am NNW 14 18 - - - - - - - 13.9 1019.5 0.8
28/04:30am NNW 13 15 - - - - - - - 13.9 1019.6 0.8
28/04:00am NNW 13 17 - - - - - - - 14.0 1019.7 0.8
28/03:30am NNW 11 14 - - - - - - Recent precip. 13.7 1019.7 0.8
28/03:00am N 12 14 - - - - - - - 13.7 1019.7 0.8
28/02:30am NNW 10 16 - - - - - - - 14.3 1019.5 0.4
28/02:00am NW 9 13 - - - - - - - 14.5 1019.4 0.4
28/01:30am WNW 11 14 - - - - - - - 14.6 1019.6 0.4
28/01:00am WNW 11 13 - - - - - - - 14.5 1019.6 0.4
28/12:30am NW 8 11 - - - - - - - 14.5 1019.7 0.4
28/12:00am NW 11 12 - - - - - - - 14.2 1019.6 0.4
 
Date/Time
EST
Wind Sea
Height
m
Swell Vis
km
Cloud Weather Temp
°C
Press
hPa
Rain since
9am
mm
Dir  Spd
kts
Gust
kts
Height
m
Period
s
Dir
27/11:30pm NW 9 13 - - - - - - - 13.7 1019.6 0.4
27/11:00pm NW 14 19 - - - - - - - 13.6 1019.5 0.4
27/10:30pm W 8 10 - - - - - - - 14.1 1019.6 0.4
27/10:00pm WSW 11 13 - - - - - - - 14.2 1019.5 0.4
27/09:30pm WNW 11 13 - - - - - - - 14.2 1019.4 0.4
27/09:00pm W 11 14 - - - - - - - 14.2 1019.2 0.4
27/08:30pm W 13 16 - - - - - - - 14.3 1019.0 0.4
27/08:00pm WNW 13 15 - - - - - - - 14.4 1018.8 0.4
27/07:30pm WNW 10 13 - - - - - - - 14.3 1018.6 0.4
27/07:00pm WNW 10 15 - - - - - - - 14.4 1018.4 0.2
27/06:30pm WNW 10 11 - - - - - - - 14.2 1018.3 0.2
27/06:00pm WSW 8 11 - - - - - - - 14.4 1018.1 0.2
27/05:30pm WNW 12 16 - - - - - - - 14.8 1018.0 0.2
27/05:00pm W 9 11 - - - - - - - 15.1 1017.9 0.2
27/04:30pm WNW 9 11 - - - - - - - 15.7 1017.7 0.0
27/04:00pm WNW 9 12 - - - - - - - 15.9 1017.5 0.0
27/03:30pm W 10 11 - - - - - - - 15.7 1017.4 0.0
27/03:00pm W 14 16 - - - - - - - 15.7 1017.3 0.0
27/02:30pm W 10 12 - - - - - - - 16.1 1017.3 0.0
27/02:00pm WNW 10 12 - - - - - - - 16.6 1017.4 0.0
27/01:30pm W 13 15 - - - - - - - 16.1 1017.5 0.0
27/01:00pm W 14 16 - - - - - - - 16.1 1017.6 0.0
27/12:30pm W 12 14 - - - - - - - 16.0 1017.8 0.0
27/12:00pm W 13 16 - - - - - - - 16.0 1018.1 0.0
27/11:30am W 13 16 - - - - - - - 15.8 1018.2 0.0
27/11:00am W 14 17 - - - - - - - 15.5 1018.3 0.0
27/10:30am W 13 16 - - - - - - - 15.3 1018.2 0.0
27/10:00am WSW 15 18 - - - - - - - 14.8 1018.0 0.0
27/09:30am WSW 15 18 - - - - - - - 14.7 1017.8 4.2
27/09:00am WSW 16 20 - - - - - - - 14.9 1017.4 4.2
27/08:30am W 18 20 - - - - - - - 14.3 1017.1 4.2
27/08:03am WNW 16 26 - - - - - - - 15.0 1016.7 2.4
27/08:00am W 15 19 - - - - - - - 15.2 1016.7 2.4
27/07:30am W 15 17 - - - - - - - 14.6 1016.2 2.4
27/07:00am W 17 23 - - - - - - - 14.4 1016.1 2.2
27/06:50am WNW 15 25 - - - - - - - 14.3 1015.7 2.2
27/06:30am WNW 20 23 - - - - - - - 14.7 1015.6 2.2
27/06:00am WNW 22 26 - - - - - - - 14.8 1015.3 2.2
27/05:30am WNW 19 22 - - - - - - - 15.1 1015.2 2.2
27/05:00am NW 21 24 - - - - - - - 15.1 1014.9 2.2
27/04:30am NW 22 26 - - - - - - - 14.8 1014.7 2.2
27/04:15am NW 19 23 - - - - - - - 14.8 1014.7 2.2
27/04:00am NNW 19 22 - - - - - - - 14.7 1014.8 2.2
27/03:30am NNW 21 26 - - - - - - - 15.0 1014.6 0.8
27/03:00am NNW 23 27 - - - - - - - 14.8 1014.4 0.8
27/02:30am NNW 23 26 - - - - - - - 14.7 1014.4 0.8
27/02:00am NNW 22 26 - - - - - - - 14.9 1014.2 0.8
27/01:30am NNW 22 28 - - - - - - - 14.8 1014.3 0.8
27/01:00am NNW 24 28 - - - - - - - 15.0 1014.3 0.8
27/12:30am NNW 24 28 - - - - - - - 15.1 1014.5 0.8
27/12:00am NNW 21 25 - - - - - - - 14.9 1014.6 0.8
 
Date/Time
EST
Wind Sea
Height
m
Swell Vis
km
Cloud Weather Temp
°C
Press
hPa
Rain since
9am
mm
Dir  Spd
kts
Gust
kts
Height
m
Period
s
Dir
26/11:30pm NNW 25 29 - - - - - - - 14.8 1014.3 0.8
26/11:00pm N 20 24 - - - - - - - 14.5 1014.5 0.8
26/10:30pm N 19 22 - - - - - - - 14.3 1014.7 0.8
26/10:00pm N 18 21 - - - - - - - 14.1 1014.7 0.8
26/09:30pm N 21 25 - - - - - - Recent precip. 13.9 1014.6 0.8
26/09:00pm N 21 25 - - - - - - - 13.6 1014.6 0.8
26/08:30pm NNW 25 30 - - - - - - - 14.1 1014.6 0.6
26/08:00pm NNW 24 28 - - - - - - - 14.7 1014.5 0.4
26/07:45pm NNW 23 33 - - - - - - - 15.2 1014.2 0.2
26/07:30pm NNW 25 31 - - - - - - - 14.9 1014.1 0.2
26/07:00pm N 24 32 - - - - - - - 15.4 1013.5 0.2
26/06:30pm N 22 26 - - - - - - - 15.0 1013.0 0.2
26/06:00pm N 24 27 - - - - - - - 14.7 1012.5 0.2
26/05:30pm N 24 31 - - - - - - - 14.6 1012.4 0.2
26/05:00pm N 25 29 - - - - - - - 14.2 1012.2 0.2
26/04:30pm N 23 30 - - - - - - - 13.9 1012.0 0.2
26/04:00pm N 23 27 - - - - - - - 14.3 1012.4 0.0

Other formats

Comma delimited format used in spreadsheet applications
http://www.bom.gov.au/fwo/IDT60701/IDT60701.94804.axf

JavaScript Object Notation format (JSON) in row-major order
http://www.bom.gov.au/fwo/IDT60701/IDT60701.94804.json

Data quality

Most of these data are generated automatically and are frequently updated. Quality checks on data are not normally performed. It is possible for incorrect values to appear. Refer to information at About Latest Weather Observations and please check the disclaimer before using these data.